createdAt,value
2019-04-27T00:01:34.042Z,24.67
2019-04-27T00:04:35.207Z,17.10
2019-04-27T00:07:33.689Z,22.83
2019-04-27T00:10:08.827Z,17.83
2019-04-27T00:12:37.975Z,20.50
2019-04-27T00:15:24.725Z,15.33
2019-04-27T00:17:58.550Z,13.33
2019-04-27T00:20:49.447Z,14.13
2019-04-27T00:23:26.232Z,14.87
2019-04-27T00:25:57.395Z,11.23
2019-04-27T00:28:28.003Z,9.97
2019-04-27T00:31:14.637Z,10.43
2019-04-27T00:33:45.470Z,9.77
2019-04-27T00:39:30.863Z,8.83
2019-04-27T00:41:59.948Z,7.93
2019-04-27T00:44:28.839Z,10.67
2019-04-27T00:47:10.462Z,10.20
2019-04-27T00:49:56.701Z,7.83
2019-04-27T00:52:28.304Z,8.17
2019-04-27T00:54:58.926Z,8.23
2019-04-27T00:57:50.880Z,9.93
2019-04-27T01:00:39.190Z,9.67
2019-04-27T01:03:18.899Z,5.97
2019-04-27T01:05:48.010Z,8.80
2019-04-27T01:08:17.112Z,7.97
2019-04-27T01:10:46.608Z,6.53
2019-04-27T01:13:20.554Z,7.00
2019-04-27T01:15:54.157Z,6.03
2019-04-27T01:18:25.366Z,6.63
2019-04-27T01:20:54.522Z,5.80
2019-04-27T01:23:25.196Z,4.43
2019-04-27T01:26:28.654Z,6.53
2019-04-27T01:29:00.716Z,6.53
2019-04-27T01:31:29.966Z,6.07
2019-04-27T01:33:59.109Z,6.53
2019-04-27T01:36:29.130Z,7.83
2019-04-27T01:38:59.506Z,6.97
2019-04-27T01:41:29.162Z,6.70
2019-04-27T01:43:59.091Z,4.77
2019-04-27T01:46:29.576Z,6.90
2019-04-27T01:49:01.084Z,7.37
2019-04-27T01:51:44.812Z,5.67
2019-04-27T01:54:16.612Z,6.50
2019-04-27T01:56:45.665Z,7.23
2019-04-27T01:59:23.514Z,7.70
2019-04-27T02:02:10.763Z,8.23
2019-04-27T02:05:11.368Z,8.93
2019-04-27T02:10:33.006Z,7.15
2019-04-27T02:13:03.300Z,7.53
2019-04-27T02:15:32.249Z,8.80
2019-04-27T02:18:11.076Z,7.00
2019-04-27T02:20:40.786Z,7.03
2019-04-27T02:23:25.991Z,6.53
2019-04-27T02:25:55.236Z,7.00
2019-04-27T02:28:37.210Z,6.67
2019-04-27T02:31:24.987Z,8.00
2019-04-27T02:34:32.687Z,9.43
2019-04-27T02:37:06.726Z,7.67
2019-04-27T02:39:35.801Z,6.33
2019-04-27T02:42:15.497Z,5.97
2019-04-27T02:44:44.738Z,5.90
2019-04-27T02:47:13.930Z,7.43
2019-04-27T02:49:42.859Z,7.63
2019-04-27T02:52:40.459Z,5.77
2019-04-27T02:55:19.767Z,6.20
2019-04-27T02:57:50.066Z,7.77
2019-04-27T03:00:20.581Z,5.53
2019-04-27T03:03:02.218Z,6.00
2019-04-27T03:05:50.394Z,6.97
2019-04-27T03:11:16.197Z,5.47
2019-04-27T03:14:03.212Z,6.43
2019-04-27T03:17:05.751Z,6.80
2019-04-27T03:19:45.276Z,7.30
2019-04-27T03:22:54.631Z,7.50
2019-04-27T03:25:41.478Z,8.20
2019-04-27T03:31:21.777Z,10.53
2019-04-27T03:33:58.302Z,6.80
2019-04-27T03:36:25.709Z,7.80
2019-04-27T03:38:55.065Z,5.87
2019-04-27T03:41:29.278Z,7.60
2019-04-27T03:46:39.736Z,7.70
2019-04-27T03:52:30.339Z,6.60
2019-04-27T03:55:05.128Z,6.93
2019-04-27T03:57:56.313Z,7.57
2019-04-27T04:00:30.101Z,5.33
2019-04-27T04:03:04.525Z,5.37
2019-04-27T04:05:36.518Z,7.03
2019-04-27T04:08:06.085Z,7.87
2019-04-27T04:10:51.030Z,7.43
2019-04-27T04:13:52.262Z,7.20
2019-04-27T04:16:39.535Z,6.17
2019-04-27T04:19:09.980Z,7.37
2019-04-27T04:21:40.017Z,5.50
2019-04-27T04:24:11.923Z,4.27
2019-04-27T04:26:40.445Z,4.40
2019-04-27T04:29:10.517Z,3.83
2019-04-27T04:31:50.430Z,5.40
2019-04-27T04:34:39.883Z,4.23
2019-04-27T04:37:31.845Z,6.93
2019-04-27T04:40:02.251Z,4.70
2019-04-27T04:42:35.281Z,5.07
2019-04-27T04:45:23.385Z,6.17
2019-04-27T04:48:10.966Z,4.67
2019-04-27T04:50:44.627Z,7.27
2019-04-27T04:53:17.083Z,4.50
2019-04-27T04:56:00.331Z,3.13
2019-04-27T04:58:33.823Z,4.70
2019-04-27T05:01:01.863Z,4.87
2019-04-27T05:03:31.515Z,4.87
2019-04-27T05:06:00.653Z,5.10
2019-04-27T05:08:29.798Z,4.23
2019-04-27T05:10:59.722Z,6.10
2019-04-27T05:13:29.464Z,4.23
2019-04-27T05:16:02.622Z,5.13
2019-04-27T05:18:29.536Z,3.73
2019-04-27T05:21:11.167Z,4.73
2019-04-27T05:23:41.108Z,4.00
2019-04-27T05:26:10.128Z,4.33
2019-04-27T05:28:41.016Z,4.30
2019-04-27T05:31:59.450Z,5.13
2019-04-27T05:33:45.927Z,5.27
2019-04-27T05:36:14.993Z,4.80
2019-04-27T05:38:45.983Z,3.37
2019-04-27T05:41:18.797Z,2.67
2019-04-27T05:44:07.632Z,3.93
2019-04-27T05:46:56.501Z,6.00
2019-04-27T05:49:30.621Z,5.57
2019-04-27T05:52:00.051Z,3.27
2019-04-27T05:54:32.141Z,4.20
2019-04-27T05:57:01.517Z,3.73
2019-04-27T05:59:30.446Z,5.10
2019-04-27T06:04:49.684Z,5.30
2019-04-27T06:07:19.295Z,4.33
2019-04-27T06:09:49.287Z,4.47
2019-04-27T06:12:29.389Z,6.50
2019-04-27T06:15:19.835Z,4.93
2019-04-27T06:18:29.469Z,6.70
2019-04-27T06:21:04.963Z,4.87
2019-04-27T06:23:56.304Z,8.00
2019-04-27T06:26:25.179Z,5.93
2019-04-27T06:28:59.518Z,4.53
2019-04-27T06:31:54.683Z,6.67
2019-04-27T06:34:22.360Z,6.23
2019-04-27T06:36:51.702Z,5.50
2019-04-27T06:39:27.226Z,4.60
2019-04-27T06:41:59.052Z,6.17
2019-04-27T06:44:29.361Z,7.03
2019-04-27T06:47:10.438Z,11.87
2019-04-27T06:49:58.702Z,5.90
2019-04-27T06:52:29.991Z,8.43
2019-04-27T06:55:15.188Z,5.23
2019-04-27T06:57:44.195Z,5.77
2019-04-27T07:00:19.117Z,10.70
2019-04-27T07:02:59.642Z,9.53
2019-04-27T07:05:28.870Z,6.57
2019-04-27T07:07:59.157Z,8.40
2019-04-27T07:10:49.169Z,7.30
2019-04-27T07:13:19.614Z,11.10
2019-04-27T07:15:48.831Z,8.00
2019-04-27T07:18:51.854Z,6.97
2019-04-27T07:21:35.765Z,8.40
2019-04-27T07:24:04.860Z,7.23
2019-04-27T07:26:43.296Z,7.30
2019-04-27T08:25:39.220Z,15.87
2019-04-27T08:28:39.819Z,8.73
2019-04-27T08:31:23.652Z,12.07
2019-04-27T08:33:53.122Z,12.73
2019-04-27T08:36:22.298Z,10.50
2019-04-27T08:38:55.133Z,15.77
2019-04-27T08:41:29.470Z,16.87
2019-04-27T08:44:00.320Z,20.90
2019-04-27T08:46:59.608Z,24.00
2019-04-27T08:49:49.851Z,18.10
2019-04-27T08:52:21.277Z,23.50
2019-04-27T08:54:59.281Z,22.10
2019-04-27T08:57:29.180Z,20.10
2019-04-27T08:59:59.720Z,135.77
2019-04-27T09:02:41.769Z,48.40
2019-04-27T09:05:02.464Z,33.70
2019-04-27T09:07:45.644Z,40.40
2019-04-27T09:10:18.757Z,29.27
2019-04-27T09:13:02.213Z,31.00
2019-04-27T09:15:39.975Z,28.87
2019-04-27T09:18:11.021Z,27.33
2019-04-27T09:20:49.146Z,25.03
2019-04-27T09:23:29.401Z,21.90
2019-04-27T09:26:03.180Z,27.03
2019-04-27T09:28:32.679Z,20.07
2019-04-27T09:31:04.561Z,19.70
2019-04-27T09:33:34.756Z,25.27
2019-04-27T09:36:06.025Z,26.27
2019-04-27T09:38:36.728Z,24.57
2019-04-27T09:41:07.874Z,20.17
2019-04-27T09:43:58.972Z,22.67
2019-04-27T09:46:28.341Z,20.77
2019-04-27T09:49:04.368Z,23.97
2019-04-27T09:51:34.311Z,20.73
2019-04-27T09:54:06.865Z,21.17
2019-04-27T09:56:40.801Z,23.47
2019-04-27T09:59:13.996Z,27.00
2019-04-27T10:01:43.142Z,27.37
2019-04-27T10:04:13.108Z,25.50
2019-04-27T10:06:42.347Z,27.83
2019-04-27T10:09:11.920Z,27.20
2019-04-27T10:11:43.956Z,30.77
2019-04-27T10:14:17.909Z,36.83
2019-04-27T10:16:47.113Z,36.03
2019-04-27T10:19:31.149Z,31.13
2019-04-27T10:21:55.684Z,23.63
2019-04-27T10:24:30.305Z,29.57
2019-04-27T10:27:00.079Z,25.57
2019-04-27T10:29:37.404Z,35.67
2019-04-27T10:32:08.708Z,45.40
2019-04-27T10:34:47.120Z,41.50
2019-04-27T10:37:23.094Z,28.43
2019-04-27T10:39:56.047Z,36.13
2019-04-27T10:42:31.827Z,28.90
2019-04-27T10:44:58.975Z,34.03
2019-04-27T10:47:35.866Z,39.33
2019-04-27T10:50:07.903Z,34.57
2019-04-27T10:53:17.159Z,33.63
2019-04-27T10:55:51.768Z,30.47
2019-04-27T10:58:42.840Z,32.20
2019-04-27T11:01:25.747Z,30.90
2019-04-27T11:04:22.606Z,30.23
2019-04-27T11:07:09.217Z,35.53
2019-04-27T11:09:40.704Z,29.50
2019-04-27T11:12:36.334Z,41.57
2019-04-27T11:15:07.721Z,39.93
2019-04-27T11:17:38.574Z,34.73
2019-04-27T11:20:08.575Z,39.90
2019-04-27T11:23:07.128Z,32.93
2019-04-27T11:25:40.127Z,28.47
2019-04-27T11:28:30.556Z,22.77
2019-04-27T11:31:02.599Z,23.50
2019-04-27T11:33:51.130Z,25.57
2019-04-27T11:36:37.985Z,22.17
2019-04-27T11:39:12.469Z,30.00
2019-04-27T11:41:51.093Z,28.17
2019-04-27T11:44:18.116Z,26.30
2019-04-27T11:46:47.668Z,25.53
2019-04-27T11:49:18.618Z,25.17
2019-04-27T11:51:52.373Z,23.23
2019-04-27T11:54:28.659Z,18.80
2019-04-27T11:57:01.675Z,21.87
2019-04-27T11:59:32.116Z,16.90
2019-04-27T12:02:01.540Z,22.30
2019-04-27T12:08:12.736Z,17.67
2019-04-27T12:10:43.097Z,17.37
2019-04-27T12:13:13.228Z,20.07
2019-04-27T12:15:50.230Z,22.37
2019-04-27T12:18:19.914Z,20.00
2019-04-27T12:20:49.801Z,20.33
2019-04-27T12:23:33.706Z,21.23
2019-04-27T12:26:12.531Z,18.80
2019-04-27T12:28:53.036Z,19.87
2019-04-27T12:31:27.477Z,20.53
2019-04-27T12:33:56.792Z,18.67
2019-04-27T12:36:26.262Z,21.47
2019-04-27T12:38:56.627Z,18.07
2019-04-27T12:41:28.680Z,19.73
2019-04-27T12:46:53.094Z,17.17
2019-04-27T12:49:22.223Z,21.17
2019-04-27T12:51:51.501Z,19.87
2019-04-27T12:54:31.636Z,19.13
2019-04-27T12:57:20.953Z,19.03
2019-04-27T13:00:26.530Z,17.93
2019-04-27T13:02:57.585Z,17.70
2019-04-27T13:05:29.683Z,18.07
2019-04-27T13:08:01.828Z,18.57
2019-04-27T13:10:30.872Z,18.03
2019-04-27T13:13:03.376Z,17.43
2019-04-27T13:15:39.776Z,18.20
2019-04-27T13:18:09.745Z,17.20
2019-04-27T13:20:40.877Z,18.50
2019-04-27T13:23:10.303Z,17.43
2019-04-27T13:25:43.065Z,19.37
2019-04-27T13:28:12.772Z,17.20
2019-04-27T13:30:43.003Z,17.73
2019-04-27T13:36:03.203Z,16.20
2019-04-27T13:38:32.989Z,16.80
2019-04-27T13:41:06.915Z,18.33
2019-04-27T13:43:48.767Z,20.03
2019-04-27T13:46:46.104Z,16.77
2019-04-27T13:49:38.248Z,17.10
2019-04-27T13:52:12.636Z,17.37
2019-04-27T13:54:42.143Z,21.50
2019-04-27T13:57:12.658Z,18.20
2019-04-27T13:59:51.643Z,17.83
2019-04-27T14:02:23.390Z,19.00
2019-04-27T14:04:52.657Z,17.80
2019-04-27T14:12:53.335Z,18.30
2019-04-27T14:15:28.884Z,17.43
2019-04-27T14:17:59.190Z,16.77
2019-04-27T14:20:28.959Z,17.07
2019-04-27T14:23:16.339Z,14.67
2019-04-27T14:25:48.684Z,17.57
2019-04-27T14:28:36.897Z,15.40
2019-04-27T14:31:09.057Z,17.20
2019-04-27T14:33:48.434Z,17.80
2019-04-27T14:36:23.087Z,15.27
2019-04-27T14:41:34.147Z,16.93
2019-04-27T14:44:26.816Z,18.40
2019-04-27T14:46:58.755Z,17.70
2019-04-27T14:49:38.934Z,14.97
2019-04-27T14:52:12.488Z,17.47
2019-04-27T14:54:50.196Z,17.17
2019-04-27T14:57:18.466Z,16.23
2019-04-27T14:59:49.668Z,14.80
2019-04-27T15:02:19.171Z,14.50
2019-04-27T15:04:50.211Z,15.37
2019-04-27T15:07:27.253Z,16.23
2019-04-27T15:09:58.865Z,16.53
2019-04-27T15:12:32.399Z,15.97
2019-04-27T15:15:15.476Z,15.97
2019-04-27T15:17:51.824Z,15.03
2019-04-27T15:20:32.727Z,15.03
2019-04-27T15:23:04.151Z,14.10
2019-04-27T15:25:43.579Z,16.73
2019-04-27T15:28:19.085Z,14.23
2019-04-27T15:31:22.494Z,14.17
2019-04-27T15:34:05.633Z,13.60
2019-04-27T15:36:52.802Z,13.73
2019-04-27T15:42:02.015Z,14.50
2019-04-27T15:44:36.567Z,15.00
2019-04-27T15:47:08.534Z,16.30
2019-04-27T15:49:49.942Z,14.60
2019-04-27T15:52:25.552Z,13.53
2019-04-27T15:55:31.786Z,11.23
2019-04-27T15:57:50.410Z,11.13
2019-04-27T16:00:24.618Z,13.20
2019-04-27T16:08:49.015Z,10.27
2019-04-27T16:11:19.834Z,11.67
2019-04-27T16:16:29.138Z,10.97
2019-04-27T16:18:59.376Z,9.80
2019-04-27T16:21:39.093Z,10.73
2019-04-27T16:24:03.463Z,10.50
2019-04-27T16:26:52.132Z,10.60
2019-04-27T16:29:22.966Z,12.13
2019-04-27T16:32:05.367Z,10.40
2019-04-27T16:34:32.981Z,9.03
2019-04-27T16:37:05.457Z,7.93
2019-04-27T16:42:49.801Z,8.70
2019-04-27T16:45:16.345Z,7.67
2019-04-27T16:47:48.075Z,9.00
2019-04-27T16:50:19.772Z,6.97
2019-04-27T16:52:56.892Z,9.07
2019-04-27T16:55:21.824Z,8.77
2019-04-27T16:57:50.812Z,10.40
2019-04-27T17:00:22.634Z,7.03
2019-04-27T17:02:55.006Z,7.07
2019-04-27T17:05:30.876Z,8.80
2019-04-27T17:08:14.266Z,10.37
2019-04-27T17:10:40.280Z,11.10
2019-04-27T17:13:14.524Z,7.70
2019-04-27T17:16:13.489Z,8.57
2019-04-27T17:18:57.714Z,11.07
2019-04-27T17:21:28.835Z,10.07
2019-04-27T17:24:02.924Z,10.80
2019-04-27T17:26:39.339Z,14.20
2019-04-27T17:29:16.494Z,12.50
2019-04-27T17:32:05.398Z,12.03
2019-04-27T17:40:01.752Z,12.60
2019-04-27T17:42:32.718Z,13.43
2019-04-27T17:45:02.315Z,14.67
2019-04-27T17:47:34.756Z,16.13
2019-04-27T17:50:34.399Z,15.77
2019-04-27T17:53:04.286Z,12.83
2019-04-27T17:55:35.469Z,13.03
2019-04-27T17:58:08.911Z,15.57
2019-04-27T18:00:44.742Z,14.27
2019-04-27T18:03:28.419Z,12.80
2019-04-27T18:06:15.011Z,11.83
2019-04-27T18:09:10.582Z,14.17
2019-04-27T18:11:50.337Z,14.30
2019-04-27T18:14:22.163Z,14.20
2019-04-27T18:25:35.529Z,17.57
2019-04-27T18:28:15.087Z,16.83
2019-04-27T18:31:01.575Z,17.63
2019-04-27T18:34:16.862Z,14.80
2019-04-27T18:36:48.971Z,15.10
2019-04-27T18:39:24.434Z,18.17
2019-04-27T18:42:03.027Z,18.73
2019-04-27T18:47:23.980Z,20.27
2019-04-27T18:50:14.550Z,16.50
2019-04-27T18:52:50.139Z,19.27
2019-04-27T18:55:29.643Z,15.03
2019-04-27T18:58:02.204Z,16.97
2019-04-27T19:00:33.524Z,14.33
2019-04-27T19:03:02.756Z,14.50
2019-04-27T19:05:40.215Z,14.67
2019-04-27T19:08:07.177Z,20.03
2019-04-27T19:10:38.261Z,20.17
2019-04-27T19:13:09.445Z,19.27
2019-04-27T19:15:40.661Z,57.13
2019-04-27T19:18:10.899Z,79.47
2019-04-27T19:20:48.081Z,99.03
2019-04-27T19:23:17.464Z,79.07
2019-04-27T19:26:09.482Z,85.17
2019-04-27T19:29:32.797Z,75.80
2019-04-27T19:32:03.101Z,68.63
2019-04-27T19:34:39.734Z,124.97
2019-04-27T19:37:11.027Z,122.17
2019-04-27T19:39:40.689Z,106.83
2019-04-27T19:42:10.390Z,100.47
2019-04-27T19:44:45.431Z,105.50
2019-04-27T19:47:15.553Z,94.27
2019-04-27T19:50:06.625Z,96.03
2019-04-27T19:52:40.574Z,88.13
2019-04-27T19:55:19.447Z,77.17
2019-04-27T19:57:49.801Z,81.63
2019-04-27T20:00:39.631Z,74.37
2019-04-27T20:03:19.408Z,71.53
2019-04-27T20:05:50.612Z,64.30
2019-04-27T20:08:24.774Z,49.87
2019-04-27T20:10:54.414Z,51.97
2019-04-27T20:13:36.164Z,48.00
2019-04-27T20:16:06.147Z,45.40
2019-04-27T20:18:37.825Z,44.23
2019-04-27T20:21:28.458Z,47.93
2019-04-27T20:24:11.808Z,39.57
2019-04-27T20:26:45.881Z,35.70
2019-04-27T20:29:16.068Z,34.63
2019-04-27T20:31:47.668Z,41.17
2019-04-27T20:34:16.896Z,39.63
2019-04-27T20:36:46.114Z,35.80
2019-04-27T20:42:12.763Z,35.67
2019-04-27T20:44:44.285Z,28.07
2019-04-27T20:47:13.479Z,24.97
2019-04-27T20:49:43.275Z,26.53
2019-04-27T20:52:22.663Z,24.43
2019-04-27T20:54:52.071Z,20.17
2019-04-27T20:57:23.940Z,21.33
2019-04-27T20:59:55.486Z,20.67
2019-04-27T21:02:57.583Z,19.13
2019-04-27T21:05:46.431Z,24.17
2019-04-27T21:08:21.414Z,28.13
2019-04-27T21:10:51.518Z,26.93
2019-04-27T21:13:22.592Z,25.90
2019-04-27T21:15:51.987Z,24.80
2019-04-27T21:18:22.024Z,23.33
2019-04-27T21:20:51.346Z,24.20
2019-04-27T21:23:41.993Z,22.53
2019-04-27T21:26:13.032Z,18.10
2019-04-27T21:31:31.656Z,18.50
2019-04-27T21:34:00.770Z,18.70
2019-04-27T21:36:31.030Z,12.00
2019-04-27T21:39:01.561Z,13.60
2019-04-27T21:41:31.583Z,9.80
2019-04-27T21:44:04.675Z,9.80
2019-04-27T21:46:34.894Z,9.33
2019-04-27T21:49:04.444Z,5.67
2019-04-27T21:51:35.480Z,10.97
2019-04-27T21:54:12.890Z,9.40
2019-04-27T21:56:42.074Z,7.53
2019-04-27T21:59:24.354Z,6.30
2019-04-27T22:01:57.542Z,9.00
2019-04-27T22:04:34.217Z,5.97
2019-04-27T22:07:06.001Z,5.93
2019-04-27T22:09:46.326Z,6.97
2019-04-27T22:12:16.050Z,6.60
2019-04-27T22:14:47.385Z,5.53
2019-04-27T22:17:18.190Z,4.43
2019-04-27T22:19:49.034Z,6.43
2019-04-27T22:22:33.863Z,7.33
2019-04-27T22:25:07.126Z,6.50
2019-04-27T22:27:41.375Z,10.80
2019-04-27T22:30:11.303Z,10.47
2019-04-27T22:32:43.571Z,6.63
2019-04-27T22:35:20.660Z,10.50
2019-04-27T22:37:55.418Z,8.17
2019-04-27T22:41:02.176Z,9.43
2019-04-27T22:43:51.433Z,6.87
2019-04-27T22:46:26.658Z,13.83
2019-04-27T22:49:02.758Z,8.40
2019-04-27T22:51:38.575Z,21.17
2019-04-27T22:54:24.772Z,16.40
2019-04-27T22:57:01.217Z,11.70
2019-04-27T22:59:53.654Z,15.97
2019-04-27T23:02:52.147Z,18.60
2019-04-27T23:05:21.404Z,15.37
2019-04-27T23:07:52.635Z,15.80
2019-04-27T23:10:25.530Z,16.40
2019-04-27T23:12:57.871Z,17.37
2019-04-27T23:15:32.466Z,17.37
2019-04-27T23:18:03.484Z,16.67
2019-04-27T23:20:33.512Z,13.13
2019-04-27T23:23:02.916Z,15.60
2019-04-27T23:25:37.737Z,12.53
2019-04-27T23:28:09.096Z,15.03
2019-04-27T23:31:04.151Z,13.13
2019-04-27T23:33:33.686Z,15.63
2019-04-27T23:36:05.159Z,19.83
2019-04-27T23:38:34.853Z,15.50
2019-04-27T23:41:04.420Z,14.53
2019-04-27T23:43:34.248Z,11.60
2019-04-27T23:46:05.913Z,12.20
2019-04-27T23:48:51.957Z,13.60
2019-04-27T23:51:37.225Z,11.37
2019-04-27T23:54:06.656Z,12.63
2019-04-27T23:56:51.931Z,11.20
2019-04-27T23:59:25.090Z,13.33
